sensor_id;sensor_type;location;lat;lon;timestamp;P1;durP1;ratioP1;P2;durP2;ratioP2
59930;SDS011;45790;51.538;6.736;2022-12-18T00:01:41;27.67;;;14.70;;
59930;SDS011;45790;51.538;6.736;2022-12-18T00:04:10;26.35;;;14.32;;
59930;SDS011;45790;51.538;6.736;2022-12-18T00:06:41;25.40;;;14.35;;
59930;SDS011;45790;51.538;6.736;2022-12-18T00:09:06;23.63;;;14.35;;
59930;SDS011;45790;51.538;6.736;2022-12-18T00:11:32;26.10;;;14.13;;
59930;SDS011;45790;51.538;6.736;2022-12-18T00:13:58;25.75;;;13.82;;
59930;SDS011;45790;51.538;6.736;2022-12-18T00:16:24;22.17;;;13.13;;
59930;SDS011;45790;51.538;6.736;2022-12-18T00:18:52;26.40;;;13.00;;
59930;SDS011;45790;51.538;6.736;2022-12-18T00:21:23;20.63;;;12.45;;
59930;SDS011;45790;51.538;6.736;2022-12-18T00:23:49;22.65;;;12.77;;
59930;SDS011;45790;51.538;6.736;2022-12-18T00:26:19;22.27;;;12.23;;
59930;SDS011;45790;51.538;6.736;2022-12-18T00:28:46;23.92;;;13.23;;
59930;SDS011;45790;51.538;6.736;2022-12-18T00:31:12;19.88;;;11.90;;
59930;SDS011;45790;51.538;6.736;2022-12-18T00:33:40;22.73;;;12.23;;
59930;SDS011;45790;51.538;6.736;2022-12-18T00:36:10;22.52;;;12.35;;
59930;SDS011;45790;51.538;6.736;2022-12-18T00:38:39;20.98;;;11.65;;
59930;SDS011;45790;51.538;6.736;2022-12-18T00:41:06;20.27;;;12.18;;
59930;SDS011;45790;51.538;6.736;2022-12-18T00:43:31;20.25;;;11.35;;
59930;SDS011;45790;51.538;6.736;2022-12-18T00:45:57;21.50;;;11.98;;
59930;SDS011;45790;51.538;6.736;2022-12-18T00:48:22;18.90;;;11.18;;
59930;SDS011;45790;51.538;6.736;2022-12-18T00:50:48;19.73;;;10.85;;
59930;SDS011;45790;51.538;6.736;2022-12-18T00:53:14;19.85;;;12.07;;
59930;SDS011;45790;51.538;6.736;2022-12-18T00:55:39;19.45;;;10.95;;
59930;SDS011;45790;51.538;6.736;2022-12-18T00:58:04;20.02;;;11.32;;
59930;SDS011;45790;51.538;6.736;2022-12-18T01:00:30;18.15;;;11.05;;
59930;SDS011;45790;51.538;6.736;2022-12-18T01:02:55;19.02;;;11.35;;
59930;SDS011;45790;51.538;6.736;2022-12-18T01:05:21;21.10;;;11.70;;
59930;SDS011;45790;51.538;6.736;2022-12-18T01:07:46;18.50;;;10.23;;
59930;SDS011;45790;51.538;6.736;2022-12-18T01:10:11;18.40;;;11.05;;
59930;SDS011;45790;51.538;6.736;2022-12-18T01:12:37;19.20;;;11.13;;
59930;SDS011;45790;51.538;6.736;2022-12-18T01:15:02;18.50;;;11.00;;
59930;SDS011;45790;51.538;6.736;2022-12-18T01:17:29;22.52;;;11.05;;
59930;SDS011;45790;51.538;6.736;2022-12-18T01:19:55;17.90;;;10.68;;
59930;SDS011;45790;51.538;6.736;2022-12-18T01:22:20;19.35;;;10.98;;
59930;SDS011;45790;51.538;6.736;2022-12-18T01:24:45;17.38;;;10.75;;
59930;SDS011;45790;51.538;6.736;2022-12-18T01:27:11;18.60;;;10.80;;
59930;SDS011;45790;51.538;6.736;2022-12-18T01:29:36;19.48;;;10.35;;
59930;SDS011;45790;51.538;6.736;2022-12-18T01:32:01;18.80;;;10.68;;
59930;SDS011;45790;51.538;6.736;2022-12-18T01:34:27;17.67;;;10.23;;
59930;SDS011;45790;51.538;6.736;2022-12-18T01:36:52;18.52;;;10.77;;
59930;SDS011;45790;51.538;6.736;2022-12-18T01:39:17;19.88;;;11.15;;
59930;SDS011;45790;51.538;6.736;2022-12-18T01:41:43;17.58;;;10.68;;
59930;SDS011;45790;51.538;6.736;2022-12-18T01:47:20;16.90;;;10.10;;
59930;SDS011;45790;51.538;6.736;2022-12-18T01:50:11;18.35;;;9.77;;
59930;SDS011;45790;51.538;6.736;2022-12-18T01:52:39;21.33;;;11.30;;
59930;SDS011;45790;51.538;6.736;2022-12-18T01:55:07;17.67;;;10.93;;
59930;SDS011;45790;51.538;6.736;2022-12-18T01:57:33;17.98;;;10.55;;
59930;SDS011;45790;51.538;6.736;2022-12-18T01:59:59;19.90;;;11.15;;
59930;SDS011;45790;51.538;6.736;2022-12-18T02:02:27;19.35;;;9.88;;
59930;SDS011;45790;51.538;6.736;2022-12-18T02:04:53;19.60;;;10.48;;
59930;SDS011;45790;51.538;6.736;2022-12-18T02:07:42;17.23;;;10.38;;
59930;SDS011;45790;51.538;6.736;2022-12-18T02:10:22;19.50;;;11.40;;
59930;SDS011;45790;51.538;6.736;2022-12-18T02:15:23;18.77;;;11.45;;
59930;SDS011;45790;51.538;6.736;2022-12-18T02:17:52;20.27;;;10.65;;
59930;SDS011;45790;51.538;6.736;2022-12-18T02:29:05;22.10;;;11.02;;
59930;SDS011;45790;51.538;6.736;2022-12-18T02:31:31;24.35;;;11.52;;
59930;SDS011;45790;51.538;6.736;2022-12-18T02:34:04;20.50;;;11.02;;
59930;SDS011;45790;51.538;6.736;2022-12-18T02:36:31;20.35;;;11.60;;
59930;SDS011;45790;51.538;6.736;2022-12-18T02:38:57;24.40;;;13.18;;
59930;SDS011;45790;51.538;6.736;2022-12-18T02:41:24;20.60;;;11.55;;
59930;SDS011;45790;51.538;6.736;2022-12-18T02:43:52;20.75;;;11.80;;
59930;SDS011;45790;51.538;6.736;2022-12-18T02:46:42;21.17;;;11.23;;
59930;SDS011;45790;51.538;6.736;2022-12-18T02:51:47;23.02;;;12.20;;
59930;SDS011;45790;51.538;6.736;2022-12-18T02:54:27;22.45;;;12.48;;
59930;SDS011;45790;51.538;6.736;2022-12-18T02:56:58;20.60;;;12.02;;
59930;SDS011;45790;51.538;6.736;2022-12-18T02:59:41;21.20;;;12.18;;
59930;SDS011;45790;51.538;6.736;2022-12-18T03:05:33;22.42;;;11.48;;
59930;SDS011;45790;51.538;6.736;2022-12-18T03:08:10;21.23;;;11.73;;
59930;SDS011;45790;51.538;6.736;2022-12-18T03:10:39;21.05;;;11.55;;
59930;SDS011;45790;51.538;6.736;2022-12-18T03:13:15;19.30;;;11.45;;
59930;SDS011;45790;51.538;6.736;2022-12-18T03:15:45;21.65;;;11.45;;
59930;SDS011;45790;51.538;6.736;2022-12-18T03:18:23;22.13;;;12.15;;
59930;SDS011;45790;51.538;6.736;2022-12-18T03:20:51;21.88;;;11.80;;
59930;SDS011;45790;51.538;6.736;2022-12-18T03:23:18;17.27;;;10.82;;
59930;SDS011;45790;51.538;6.736;2022-12-18T03:25:46;18.70;;;11.27;;
59930;SDS011;45790;51.538;6.736;2022-12-18T03:28:15;21.63;;;12.13;;
59930;SDS011;45790;51.538;6.736;2022-12-18T03:30:43;21.92;;;11.65;;
59930;SDS011;45790;51.538;6.736;2022-12-18T03:33:12;21.30;;;11.55;;
59930;SDS011;45790;51.538;6.736;2022-12-18T03:35:42;23.58;;;12.10;;
59930;SDS011;45790;51.538;6.736;2022-12-18T03:38:08;20.20;;;11.48;;
59930;SDS011;45790;51.538;6.736;2022-12-18T03:48:47;20.13;;;11.25;;
59930;SDS011;45790;51.538;6.736;2022-12-18T03:54:02;19.50;;;11.43;;
59930;SDS011;45790;51.538;6.736;2022-12-18T03:56:29;20.98;;;11.48;;
59930;SDS011;45790;51.538;6.736;2022-12-18T03:58:56;20.45;;;11.18;;
59930;SDS011;45790;51.538;6.736;2022-12-18T04:01:24;19.60;;;11.68;;
59930;SDS011;45790;51.538;6.736;2022-12-18T04:03:56;20.98;;;11.55;;
59930;SDS011;45790;51.538;6.736;2022-12-18T04:06:24;20.70;;;11.55;;
59930;SDS011;45790;51.538;6.736;2022-12-18T04:08:50;20.33;;;12.15;;
59930;SDS011;45790;51.538;6.736;2022-12-18T04:11:15;21.17;;;11.77;;
59930;SDS011;45790;51.538;6.736;2022-12-18T04:13:41;19.92;;;11.15;;
59930;SDS011;45790;51.538;6.736;2022-12-18T04:16:07;21.05;;;11.75;;
59930;SDS011;45790;51.538;6.736;2022-12-18T04:18:34;19.98;;;12.25;;
59930;SDS011;45790;51.538;6.736;2022-12-18T04:21:00;21.67;;;11.85;;
59930;SDS011;45790;51.538;6.736;2022-12-18T04:23:25;19.88;;;11.40;;
59930;SDS011;45790;51.538;6.736;2022-12-18T04:25:50;22.13;;;11.70;;
59930;SDS011;45790;51.538;6.736;2022-12-18T04:28:16;20.17;;;11.15;;
59930;SDS011;45790;51.538;6.736;2022-12-18T04:30:41;23.98;;;12.68;;
59930;SDS011;45790;51.538;6.736;2022-12-18T04:33:10;21.15;;;11.70;;
59930;SDS011;45790;51.538;6.736;2022-12-18T04:35:36;21.52;;;12.15;;
59930;SDS011;45790;51.538;6.736;2022-12-18T04:38:01;23.27;;;12.65;;
59930;SDS011;45790;51.538;6.736;2022-12-18T04:40:27;19.83;;;10.95;;
59930;SDS011;45790;51.538;6.736;2022-12-18T04:42:52;20.77;;;11.88;;
59930;SDS011;45790;51.538;6.736;2022-12-18T04:45:17;21.65;;;11.05;;
59930;SDS011;45790;51.538;6.736;2022-12-18T04:47:43;20.88;;;11.60;;
59930;SDS011;45790;51.538;6.736;2022-12-18T04:50:08;16.58;;;10.60;;
59930;SDS011;45790;51.538;6.736;2022-12-18T04:52:34;21.02;;;12.15;;
59930;SDS011;45790;51.538;6.736;2022-12-18T04:55:00;22.35;;;11.30;;
59930;SDS011;45790;51.538;6.736;2022-12-18T04:57:26;22.65;;;11.48;;
59930;SDS011;45790;51.538;6.736;2022-12-18T04:59:51;19.42;;;10.50;;
59930;SDS011;45790;51.538;6.736;2022-12-18T05:02:16;18.40;;;10.35;;
59930;SDS011;45790;51.538;6.736;2022-12-18T05:04:42;20.77;;;11.73;;
59930;SDS011;45790;51.538;6.736;2022-12-18T05:07:07;19.70;;;11.35;;
59930;SDS011;45790;51.538;6.736;2022-12-18T05:09:32;17.30;;;10.60;;
59930;SDS011;45790;51.538;6.736;2022-12-18T05:11:58;20.33;;;11.35;;
59930;SDS011;45790;51.538;6.736;2022-12-18T05:14:23;25.17;;;11.15;;
59930;SDS011;45790;51.538;6.736;2022-12-18T05:16:48;21.40;;;10.77;;
59930;SDS011;45790;51.538;6.736;2022-12-18T05:19:13;20.73;;;10.73;;
59930;SDS011;45790;51.538;6.736;2022-12-18T05:21:39;19.25;;;11.57;;
59930;SDS011;45790;51.538;6.736;2022-12-18T05:24:04;19.33;;;11.20;;
59930;SDS011;45790;51.538;6.736;2022-12-18T05:26:30;21.20;;;11.52;;
59930;SDS011;45790;51.538;6.736;2022-12-18T05:28:56;21.73;;;11.93;;
59930;SDS011;45790;51.538;6.736;2022-12-18T05:31:21;24.05;;;11.98;;
59930;SDS011;45790;51.538;6.736;2022-12-18T05:33:48;18.15;;;10.48;;
59930;SDS011;45790;51.538;6.736;2022-12-18T05:36:13;20.88;;;11.10;;
59930;SDS011;45790;51.538;6.736;2022-12-18T05:38:38;19.00;;;10.48;;
59930;SDS011;45790;51.538;6.736;2022-12-18T05:41:05;20.55;;;10.60;;
59930;SDS011;45790;51.538;6.736;2022-12-18T05:43:30;21.15;;;10.82;;
59930;SDS011;45790;51.538;6.736;2022-12-18T05:45:56;17.80;;;10.40;;
59930;SDS011;45790;51.538;6.736;2022-12-18T05:48:22;22.58;;;11.20;;
59930;SDS011;45790;51.538;6.736;2022-12-18T05:50:48;19.80;;;10.80;;
59930;SDS011;45790;51.538;6.736;2022-12-18T05:53:15;20.42;;;11.25;;
59930;SDS011;45790;51.538;6.736;2022-12-18T05:55:42;20.40;;;11.50;;
59930;SDS011;45790;51.538;6.736;2022-12-18T05:58:08;20.95;;;11.27;;
59930;SDS011;45790;51.538;6.736;2022-12-18T06:00:35;19.65;;;10.82;;
59930;SDS011;45790;51.538;6.736;2022-12-18T06:03:04;21.88;;;12.05;;
59930;SDS011;45790;51.538;6.736;2022-12-18T06:05:34;19.10;;;10.73;;
59930;SDS011;45790;51.538;6.736;2022-12-18T06:08:00;21.73;;;10.98;;
59930;SDS011;45790;51.538;6.736;2022-12-18T06:10:25;21.63;;;11.60;;
59930;SDS011;45790;51.538;6.736;2022-12-18T06:12:51;20.48;;;12.18;;
59930;SDS011;45790;51.538;6.736;2022-12-18T06:15:16;19.92;;;11.35;;
59930;SDS011;45790;51.538;6.736;2022-12-18T06:17:41;21.75;;;11.52;;
59930;SDS011;45790;51.538;6.736;2022-12-18T06:20:07;20.83;;;11.68;;
59930;SDS011;45790;51.538;6.736;2022-12-18T06:22:33;19.58;;;10.80;;
59930;SDS011;45790;51.538;6.736;2022-12-18T06:24:59;19.30;;;11.35;;
59930;SDS011;45790;51.538;6.736;2022-12-18T06:27:25;23.52;;;12.38;;
59930;SDS011;45790;51.538;6.736;2022-12-18T06:29:50;22.42;;;11.55;;
59930;SDS011;45790;51.538;6.736;2022-12-18T06:32:15;20.60;;;11.43;;
59930;SDS011;45790;51.538;6.736;2022-12-18T06:34:41;20.60;;;11.60;;
59930;SDS011;45790;51.538;6.736;2022-12-18T06:37:06;19.20;;;10.82;;
59930;SDS011;45790;51.538;6.736;2022-12-18T06:39:32;22.77;;;11.05;;
59930;SDS011;45790;51.538;6.736;2022-12-18T06:41:57;19.77;;;11.27;;
59930;SDS011;45790;51.538;6.736;2022-12-18T06:44:22;23.45;;;11.82;;
59930;SDS011;45790;51.538;6.736;2022-12-18T06:46:48;19.33;;;11.38;;
59930;SDS011;45790;51.538;6.736;2022-12-18T06:49:13;18.23;;;10.45;;
59930;SDS011;45790;51.538;6.736;2022-12-18T06:51:39;23.50;;;12.20;;
59930;SDS011;45790;51.538;6.736;2022-12-18T06:54:04;20.85;;;11.02;;
59930;SDS011;45790;51.538;6.736;2022-12-18T06:56:29;19.98;;;11.70;;
59930;SDS011;45790;51.538;6.736;2022-12-18T06:58:55;18.25;;;11.05;;
59930;SDS011;45790;51.538;6.736;2022-12-18T07:01:21;20.40;;;11.88;;
59930;SDS011;45790;51.538;6.736;2022-12-18T07:03:46;21.75;;;12.07;;
59930;SDS011;45790;51.538;6.736;2022-12-18T07:06:16;22.38;;;11.88;;
59930;SDS011;45790;51.538;6.736;2022-12-18T07:08:43;22.45;;;11.63;;
59930;SDS011;45790;51.538;6.736;2022-12-18T07:11:09;20.58;;;11.18;;
59930;SDS011;45790;51.538;6.736;2022-12-18T07:13:34;23.85;;;11.73;;
59930;SDS011;45790;51.538;6.736;2022-12-18T07:16:04;20.63;;;10.70;;
59930;SDS011;45790;51.538;6.736;2022-12-18T07:18:39;20.13;;;11.20;;
59930;SDS011;45790;51.538;6.736;2022-12-18T07:21:05;22.25;;;12.13;;
59930;SDS011;45790;51.538;6.736;2022-12-18T07:23:32;22.65;;;12.13;;
59930;SDS011;45790;51.538;6.736;2022-12-18T07:26:05;24.15;;;12.43;;
59930;SDS011;45790;51.538;6.736;2022-12-18T07:28:31;22.20;;;11.70;;
59930;SDS011;45790;51.538;6.736;2022-12-18T07:30:58;23.38;;;11.00;;
59930;SDS011;45790;51.538;6.736;2022-12-18T07:33:26;21.83;;;11.88;;
59930;SDS011;45790;51.538;6.736;2022-12-18T07:35:52;25.15;;;12.57;;
59930;SDS011;45790;51.538;6.736;2022-12-18T07:38:17;22.33;;;12.18;;
59930;SDS011;45790;51.538;6.736;2022-12-18T07:40:42;25.98;;;12.85;;
59930;SDS011;45790;51.538;6.736;2022-12-18T07:43:08;22.00;;;12.07;;
59930;SDS011;45790;51.538;6.736;2022-12-18T07:45:33;21.25;;;12.07;;
59930;SDS011;45790;51.538;6.736;2022-12-18T07:47:58;23.85;;;12.38;;
59930;SDS011;45790;51.538;6.736;2022-12-18T07:50:24;23.48;;;11.95;;
59930;SDS011;45790;51.538;6.736;2022-12-18T07:52:49;24.08;;;12.77;;
59930;SDS011;45790;51.538;6.736;2022-12-18T07:55:14;25.05;;;12.48;;
59930;SDS011;45790;51.538;6.736;2022-12-18T07:57:40;24.73;;;12.43;;
59930;SDS011;45790;51.538;6.736;2022-12-18T08:00:05;20.40;;;12.38;;
59930;SDS011;45790;51.538;6.736;2022-12-18T08:02:31;26.35;;;12.38;;
59930;SDS011;45790;51.538;6.736;2022-12-18T08:04:56;21.48;;;12.63;;
59930;SDS011;45790;51.538;6.736;2022-12-18T08:07:22;22.73;;;12.45;;
59930;SDS011;45790;51.538;6.736;2022-12-18T08:09:47;25.85;;;12.85;;
59930;SDS011;45790;51.538;6.736;2022-12-18T08:12:12;23.75;;;12.52;;
59930;SDS011;45790;51.538;6.736;2022-12-18T08:14:38;24.35;;;12.02;;
59930;SDS011;45790;51.538;6.736;2022-12-18T08:17:03;21.05;;;12.02;;
59930;SDS011;45790;51.538;6.736;2022-12-18T08:19:28;24.17;;;12.38;;
59930;SDS011;45790;51.538;6.736;2022-12-18T08:21:54;21.75;;;12.15;;
59930;SDS011;45790;51.538;6.736;2022-12-18T08:24:19;22.20;;;12.57;;
59930;SDS011;45790;51.538;6.736;2022-12-18T08:26:44;22.83;;;11.80;;
59930;SDS011;45790;51.538;6.736;2022-12-18T08:29:10;25.83;;;13.77;;
59930;SDS011;45790;51.538;6.736;2022-12-18T08:31:35;24.25;;;12.23;;
59930;SDS011;45790;51.538;6.736;2022-12-18T08:34:01;23.17;;;12.70;;
59930;SDS011;45790;51.538;6.736;2022-12-18T08:36:26;22.98;;;13.45;;
59930;SDS011;45790;51.538;6.736;2022-12-18T08:38:52;22.05;;;12.30;;
59930;SDS011;45790;51.538;6.736;2022-12-18T08:41:18;21.15;;;12.02;;
59930;SDS011;45790;51.538;6.736;2022-12-18T08:43:44;24.05;;;12.60;;
59930;SDS011;45790;51.538;6.736;2022-12-18T08:46:31;22.45;;;12.77;;
59930;SDS011;45790;51.538;6.736;2022-12-18T08:51:24;22.88;;;11.57;;
59930;SDS011;45790;51.538;6.736;2022-12-18T08:53:49;21.98;;;11.60;;
59930;SDS011;45790;51.538;6.736;2022-12-18T08:56:15;24.50;;;12.88;;
59930;SDS011;45790;51.538;6.736;2022-12-18T08:58:40;23.25;;;12.63;;
59930;SDS011;45790;51.538;6.736;2022-12-18T09:01:07;21.98;;;12.52;;
59930;SDS011;45790;51.538;6.736;2022-12-18T09:03:34;21.92;;;12.25;;
59930;SDS011;45790;51.538;6.736;2022-12-18T09:05:59;21.20;;;12.15;;
59930;SDS011;45790;51.538;6.736;2022-12-18T09:08:25;22.80;;;13.05;;
59930;SDS011;45790;51.538;6.736;2022-12-18T09:10:51;22.90;;;12.63;;
59930;SDS011;45790;51.538;6.736;2022-12-18T09:13:17;28.17;;;12.77;;
59930;SDS011;45790;51.538;6.736;2022-12-18T09:15:46;23.38;;;12.75;;
59930;SDS011;45790;51.538;6.736;2022-12-18T09:18:14;21.60;;;11.95;;
59930;SDS011;45790;51.538;6.736;2022-12-18T09:20:40;19.23;;;11.43;;
59930;SDS011;45790;51.538;6.736;2022-12-18T09:23:05;22.92;;;13.27;;
59930;SDS011;45790;51.538;6.736;2022-12-18T09:25:31;20.70;;;11.85;;
59930;SDS011;45790;51.538;6.736;2022-12-18T09:28:19;22.10;;;11.90;;
59930;SDS011;45790;51.538;6.736;2022-12-18T09:30:45;21.02;;;12.32;;
59930;SDS011;45790;51.538;6.736;2022-12-18T09:33:11;23.38;;;11.45;;
59930;SDS011;45790;51.538;6.736;2022-12-18T09:35:38;23.20;;;13.15;;
59930;SDS011;45790;51.538;6.736;2022-12-18T09:38:03;22.15;;;12.35;;
59930;SDS011;45790;51.538;6.736;2022-12-18T09:40:32;22.48;;;13.05;;
59930;SDS011;45790;51.538;6.736;2022-12-18T09:43:03;22.65;;;13.00;;
59930;SDS011;45790;51.538;6.736;2022-12-18T09:45:38;22.30;;;12.07;;
59930;SDS011;45790;51.538;6.736;2022-12-18T09:48:08;21.88;;;11.68;;
59930;SDS011;45790;51.538;6.736;2022-12-18T09:50:37;22.33;;;12.25;;
59930;SDS011;45790;51.538;6.736;2022-12-18T09:53:06;24.58;;;12.95;;
59930;SDS011;45790;51.538;6.736;2022-12-18T09:55:39;22.20;;;12.15;;
59930;SDS011;45790;51.538;6.736;2022-12-18T09:58:11;21.67;;;12.35;;
59930;SDS011;45790;51.538;6.736;2022-12-18T10:00:40;22.80;;;11.77;;
59930;SDS011;45790;51.538;6.736;2022-12-18T10:03:10;23.35;;;12.98;;
59930;SDS011;45790;51.538;6.736;2022-12-18T10:05:40;22.85;;;12.27;;
59930;SDS011;45790;51.538;6.736;2022-12-18T10:10:47;20.17;;;11.20;;
59930;SDS011;45790;51.538;6.736;2022-12-18T10:16:03;22.30;;;11.77;;
59930;SDS011;45790;51.538;6.736;2022-12-18T10:19:17;19.23;;;11.15;;
59930;SDS011;45790;51.538;6.736;2022-12-18T10:27:18;21.13;;;10.80;;
59930;SDS011;45790;51.538;6.736;2022-12-18T10:29:47;20.23;;;11.02;;
59930;SDS011;45790;51.538;6.736;2022-12-18T10:32:14;22.02;;;11.00;;
59930;SDS011;45790;51.538;6.736;2022-12-18T10:34:44;21.08;;;11.70;;
59930;SDS011;45790;51.538;6.736;2022-12-18T10:37:12;18.58;;;11.02;;
59930;SDS011;45790;51.538;6.736;2022-12-18T10:42:24;19.63;;;10.85;;
59930;SDS011;45790;51.538;6.736;2022-12-18T10:44:55;18.13;;;10.25;;
59930;SDS011;45790;51.538;6.736;2022-12-18T10:47:33;17.98;;;10.05;;
59930;SDS011;45790;51.538;6.736;2022-12-18T10:49:59;18.33;;;10.50;;
59930;SDS011;45790;51.538;6.736;2022-12-18T10:52:25;17.73;;;11.05;;
59930;SDS011;45790;51.538;6.736;2022-12-18T10:54:54;18.38;;;9.63;;
59930;SDS011;45790;51.538;6.736;2022-12-18T10:59:54;18.92;;;10.07;;
59930;SDS011;45790;51.538;6.736;2022-12-18T11:02:26;16.75;;;9.60;;
59930;SDS011;45790;51.538;6.736;2022-12-18T11:04:59;18.13;;;10.52;;
59930;SDS011;45790;51.538;6.736;2022-12-18T11:07:24;16.88;;;9.85;;
59930;SDS011;45790;51.538;6.736;2022-12-18T11:09:59;20.25;;;10.40;;
59930;SDS011;45790;51.538;6.736;2022-12-18T11:12:25;18.70;;;10.10;;
59930;SDS011;45790;51.538;6.736;2022-12-18T11:14:53;16.58;;;10.00;;
59930;SDS011;45790;51.538;6.736;2022-12-18T11:17:31;18.48;;;10.27;;
59930;SDS011;45790;51.538;6.736;2022-12-18T11:20:40;16.40;;;9.93;;
59930;SDS011;45790;51.538;6.736;2022-12-18T11:22:57;15.15;;;9.07;;
59930;SDS011;45790;51.538;6.736;2022-12-18T11:25:24;17.27;;;9.55;;
59930;SDS011;45790;51.538;6.736;2022-12-18T11:27:56;19.45;;;10.32;;
59930;SDS011;45790;51.538;6.736;2022-12-18T11:32:58;15.93;;;9.93;;
59930;SDS011;45790;51.538;6.736;2022-12-18T11:38:23;17.40;;;9.85;;
59930;SDS011;45790;51.538;6.736;2022-12-18T11:40:58;19.50;;;10.40;;
59930;SDS011;45790;51.538;6.736;2022-12-18T11:43:48;18.40;;;9.38;;
59930;SDS011;45790;51.538;6.736;2022-12-18T11:46:24;18.73;;;9.80;;
59930;SDS011;45790;51.538;6.736;2022-12-18T11:49:12;16.85;;;9.48;;
59930;SDS011;45790;51.538;6.736;2022-12-18T11:51:45;15.73;;;9.60;;
59930;SDS011;45790;51.538;6.736;2022-12-18T11:54:33;16.10;;;9.32;;
59930;SDS011;45790;51.538;6.736;2022-12-18T11:57:03;16.55;;;9.43;;
59930;SDS011;45790;51.538;6.736;2022-12-18T11:59:46;16.10;;;9.75;;
59930;SDS011;45790;51.538;6.736;2022-12-18T12:05:14;15.30;;;8.45;;
59930;SDS011;45790;51.538;6.736;2022-12-18T12:08:15;14.43;;;7.88;;
59930;SDS011;45790;51.538;6.736;2022-12-18T12:21:03;17.38;;;8.15;;
59930;SDS011;45790;51.538;6.736;2022-12-18T12:26:06;11.93;;;6.93;;
59930;SDS011;45790;51.538;6.736;2022-12-18T12:28:37;14.20;;;7.93;;
59930;SDS011;45790;51.538;6.736;2022-12-18T12:34:20;11.77;;;7.03;;
59930;SDS011;45790;51.538;6.736;2022-12-18T12:39:56;11.10;;;6.03;;
59930;SDS011;45790;51.538;6.736;2022-12-18T12:45:22;11.52;;;6.20;;
59930;SDS011;45790;51.538;6.736;2022-12-18T12:47:51;12.00;;;6.57;;
59930;SDS011;45790;51.538;6.736;2022-12-18T12:50:18;12.27;;;6.47;;
59930;SDS011;45790;51.538;6.736;2022-12-18T12:52:50;10.63;;;6.18;;
59930;SDS011;45790;51.538;6.736;2022-12-18T12:55:22;13.15;;;6.57;;
59930;SDS011;45790;51.538;6.736;2022-12-18T13:00:56;11.30;;;6.25;;
59930;SDS011;45790;51.538;6.736;2022-12-18T13:06:46;10.65;;;5.88;;
59930;SDS011;45790;51.538;6.736;2022-12-18T13:09:17;12.07;;;6.03;;
59930;SDS011;45790;51.538;6.736;2022-12-18T13:11:46;12.05;;;6.10;;
59930;SDS011;45790;51.538;6.736;2022-12-18T13:14:33;11.75;;;6.25;;
59930;SDS011;45790;51.538;6.736;2022-12-18T13:22:31;10.02;;;5.43;;
59930;SDS011;45790;51.538;6.736;2022-12-18T13:24:58;11.40;;;5.93;;
59930;SDS011;45790;51.538;6.736;2022-12-18T13:35:38;11.32;;;6.03;;
59930;SDS011;45790;51.538;6.736;2022-12-18T13:45:45;11.68;;;5.95;;
59930;SDS011;45790;51.538;6.736;2022-12-18T13:48:15;9.50;;;5.57;;
59930;SDS011;45790;51.538;6.736;2022-12-18T13:50:52;8.90;;;5.07;;
59930;SDS011;45790;51.538;6.736;2022-12-18T13:53:21;10.30;;;5.60;;
59930;SDS011;45790;51.538;6.736;2022-12-18T13:55:49;9.48;;;5.32;;
59930;SDS011;45790;51.538;6.736;2022-12-18T13:58:15;10.50;;;5.68;;
59930;SDS011;45790;51.538;6.736;2022-12-18T14:00:41;10.75;;;5.60;;
59930;SDS011;45790;51.538;6.736;2022-12-18T14:06:03;12.98;;;6.18;;
59930;SDS011;45790;51.538;6.736;2022-12-18T14:08:38;9.80;;;5.38;;
59930;SDS011;45790;51.538;6.736;2022-12-18T14:11:04;10.30;;;5.32;;
59930;SDS011;45790;51.538;6.736;2022-12-18T14:13:32;11.07;;;5.60;;
59930;SDS011;45790;51.538;6.736;2022-12-18T14:16:01;11.43;;;5.50;;
59930;SDS011;45790;51.538;6.736;2022-12-18T14:18:31;9.68;;;4.82;;
59930;SDS011;45790;51.538;6.736;2022-12-18T14:20:59;10.68;;;5.47;;
59930;SDS011;45790;51.538;6.736;2022-12-18T14:26:00;11.68;;;6.05;;
59930;SDS011;45790;51.538;6.736;2022-12-18T14:28:26;11.52;;;5.50;;
59930;SDS011;45790;51.538;6.736;2022-12-18T14:30:52;10.43;;;5.32;;
59930;SDS011;45790;51.538;6.736;2022-12-18T14:33:22;12.07;;;6.32;;
59930;SDS011;45790;51.538;6.736;2022-12-18T14:35:52;11.02;;;5.55;;
59930;SDS011;45790;51.538;6.736;2022-12-18T14:38:32;10.93;;;5.65;;
59930;SDS011;45790;51.538;6.736;2022-12-18T14:41:14;11.93;;;5.72;;
59930;SDS011;45790;51.538;6.736;2022-12-18T14:43:42;11.55;;;6.35;;
59930;SDS011;45790;51.538;6.736;2022-12-18T14:49:02;11.10;;;5.85;;
59930;SDS011;45790;51.538;6.736;2022-12-18T14:51:30;13.52;;;6.47;;
59930;SDS011;45790;51.538;6.736;2022-12-18T14:54:00;11.07;;;6.03;;
59930;SDS011;45790;51.538;6.736;2022-12-18T14:56:28;9.52;;;5.82;;
59930;SDS011;45790;51.538;6.736;2022-12-18T14:58:59;11.82;;;5.93;;
59930;SDS011;45790;51.538;6.736;2022-12-18T15:03:55;13.03;;;6.10;;
59930;SDS011;45790;51.538;6.736;2022-12-18T15:06:37;12.20;;;5.85;;
59930;SDS011;45790;51.538;6.736;2022-12-18T15:09:25;13.30;;;6.72;;
59930;SDS011;45790;51.538;6.736;2022-12-18T15:11:55;12.57;;;6.43;;
59930;SDS011;45790;51.538;6.736;2022-12-18T15:14:32;11.23;;;5.90;;
59930;SDS011;45790;51.538;6.736;2022-12-18T15:17:00;10.63;;;6.28;;
59930;SDS011;45790;51.538;6.736;2022-12-18T15:19:39;12.85;;;6.32;;
59930;SDS011;45790;51.538;6.736;2022-12-18T15:22:17;10.68;;;6.25;;
59930;SDS011;45790;51.538;6.736;2022-12-18T15:24:45;11.25;;;5.90;;
59930;SDS011;45790;51.538;6.736;2022-12-18T15:27:21;10.52;;;5.68;;
59930;SDS011;45790;51.538;6.736;2022-12-18T15:32:36;13.43;;;6.22;;
59930;SDS011;45790;51.538;6.736;2022-12-18T15:37:33;11.95;;;6.50;;
59930;SDS011;45790;51.538;6.736;2022-12-18T15:39:59;13.05;;;6.30;;
59930;SDS011;45790;51.538;6.736;2022-12-18T15:42:24;11.98;;;5.95;;
59930;SDS011;45790;51.538;6.736;2022-12-18T15:45:11;10.80;;;6.30;;
59930;SDS011;45790;51.538;6.736;2022-12-18T15:47:37;11.00;;;6.47;;
59930;SDS011;45790;51.538;6.736;2022-12-18T15:50:06;10.90;;;6.28;;
59930;SDS011;45790;51.538;6.736;2022-12-18T15:52:32;12.02;;;6.22;;
59930;SDS011;45790;51.538;6.736;2022-12-18T15:55:14;12.57;;;6.28;;
59930;SDS011;45790;51.538;6.736;2022-12-18T15:57:59;11.75;;;6.68;;
59930;SDS011;45790;51.538;6.736;2022-12-18T16:00:25;12.90;;;6.90;;
59930;SDS011;45790;51.538;6.736;2022-12-18T16:02:50;12.32;;;6.45;;
59930;SDS011;45790;51.538;6.736;2022-12-18T16:05:16;10.88;;;6.28;;
59930;SDS011;45790;51.538;6.736;2022-12-18T16:07:43;12.20;;;6.32;;
59930;SDS011;45790;51.538;6.736;2022-12-18T16:10:09;13.02;;;6.80;;
59930;SDS011;45790;51.538;6.736;2022-12-18T16:12:37;11.55;;;6.10;;
59930;SDS011;45790;51.538;6.736;2022-12-18T16:15:03;11.20;;;6.65;;
59930;SDS011;45790;51.538;6.736;2022-12-18T16:17:29;13.73;;;7.07;;
59930;SDS011;45790;51.538;6.736;2022-12-18T16:19:55;12.60;;;7.10;;
59930;SDS011;45790;51.538;6.736;2022-12-18T16:22:21;14.40;;;7.22;;
59930;SDS011;45790;51.538;6.736;2022-12-18T16:24:48;11.82;;;6.47;;
59930;SDS011;45790;51.538;6.736;2022-12-18T16:27:14;13.10;;;6.38;;
59930;SDS011;45790;51.538;6.736;2022-12-18T16:29:42;12.32;;;6.35;;
59930;SDS011;45790;51.538;6.736;2022-12-18T16:32:08;12.57;;;6.47;;
59930;SDS011;45790;51.538;6.736;2022-12-18T16:34:37;12.23;;;7.15;;
59930;SDS011;45790;51.538;6.736;2022-12-18T16:37:06;13.35;;;7.43;;
59930;SDS011;45790;51.538;6.736;2022-12-18T16:39:32;13.05;;;7.10;;